Time;durP1;ratioP1;P1;durP2;ratioP2;P2;SDS_P1;SDS_P2;PMS_P1;PMS_P2;Temp;Humidity;BMP_temperature;BMP_pressure;BME280_temperature;BME280_humidity;BME280_pressure;Samples;Min_cycle;Max_cycle;Signal;HPM_P1;HPM_P2
2022/06/29 00:00:47;;;;;;;2.67;0.98;;;;;;;20.27;60.94;98487.91;4131526;28;20228;-57
2022/06/29 00:02:49;;;;;;;0.80;0.80;;;;;;;20.27;60.52;98493.47;4130180;28;20227;-57
2022/06/29 00:04:51;;;;;;;2.60;1.10;;;;;;;20.30;60.74;98482.56;4129038;28;20204;-58
2022/06/29 00:06:52;;;;;;;1.00;0.90;;;;;;;20.25;60.73;98479.09;4131520;28;20216;-59
2022/06/29 00:08:54;;;;;;;1.85;1.00;;;;;;;20.18;60.68;98473.94;4130802;28;20226;-59
2022/06/29 00:10:55;;;;;;;3.33;1.00;;;;;;;20.16;60.93;98475.38;4134300;28;20201;-59
2022/06/29 00:12:57;;;;;;;1.80;1.10;;;;;;;20.10;61.00;98471.09;4135828;28;20279;-59
2022/06/29 00:15:02;;;;;;;2.08;0.85;;;;;;;20.07;61.35;98464.22;4116566;28;20618;-58
2022/06/29 00:17:03;;;;;;;1.48;0.80;;;;;;;19.96;61.49;98464.69;4136161;28;20239;-59
2022/06/29 00:19:05;;;;;;;1.60;0.80;;;;;;;20.03;61.37;98476.19;4130486;28;20805;-58
2022/06/29 00:21:07;;;;;;;1.13;1.02;;;;;;;20.06;61.37;98470.06;4131487;28;20300;-58
2022/06/29 00:23:10;;;;;;;2.58;0.93;;;;;;;20.09;61.58;98475.00;4132307;28;20228;-58
2022/06/29 00:25:13;;;;;;;1.30;0.85;;;;;;;20.12;61.90;98474.38;4132179;28;20352;-59
2022/06/29 00:27:14;;;;;;;3.15;0.95;;;;;;;20.14;61.63;98472.09;4131276;28;20296;-58
2022/06/29 00:29:16;;;;;;;0.95;0.80;;;;;;;20.16;61.36;98465.09;4129610;28;20677;-58
2022/06/29 00:31:18;;;;;;;1.20;0.98;;;;;;;20.18;61.51;98473.94;4132256;28;20299;-59
2022/06/29 00:33:19;;;;;;;2.65;0.93;;;;;;;20.12;61.88;98464.06;4133231;28;20616;-59
2022/06/29 00:35:21;;;;;;;1.63;1.00;;;;;;;20.14;61.63;98474.88;4118755;28;20280;-58
2022/06/29 00:37:23;;;;;;;1.30;1.00;;;;;;;20.13;61.62;98468.53;4129961;28;20299;-58
2022/06/29 00:39:24;;;;;;;2.28;1.02;;;;;;;20.14;61.62;98467.38;4130885;28;20837;-59
2022/06/29 00:41:26;;;;;;;1.48;0.85;;;;;;;20.11;61.50;98462.44;4133172;28;20299;-58
2022/06/29 00:43:28;;;;;;;1.13;1.00;;;;;;;20.09;61.57;98461.94;4136685;28;20657;-60
2022/06/29 00:45:30;;;;;;;1.17;0.95;;;;;;;20.07;61.64;98460.59;4146924;28;20292;-58
2022/06/29 00:47:31;;;;;;;1.17;0.70;;;;;;;19.99;60.94;98459.34;4130729;28;20288;-59
2022/06/29 00:49:34;;;;;;;1.45;1.00;;;;;;;19.88;61.79;98462.66;4131046;28;20406;-59
2022/06/29 00:51:36;;;;;;;0.77;0.70;;;;;;;19.89;61.64;98459.59;4153463;28;20263;-57
2022/06/29 00:53:40;;;;;;;1.33;0.95;;;;;;;19.91;61.65;98462.84;4149966;28;20276;-58
2022/06/29 00:55:44;;;;;;;2.53;0.90;;;;;;;19.97;61.18;98456.06;4120671;28;20209;-59
2022/06/29 00:57:47;;;;;;;1.80;1.17;;;;;;;19.67;60.56;98462.28;4131539;28;20304;-59
2022/06/29 00:59:51;;;;;;;2.42;1.00;;;;;;;19.75;60.98;98458.78;4130293;28;20232;-59
2022/06/29 01:01:53;;;;;;;1.63;1.08;;;;;;;19.75;60.68;98461.56;4129018;28;20672;-59
2022/06/29 01:03:55;;;;;;;1.65;0.80;;;;;;;19.72;60.59;98458.59;4144467;28;20221;-58
2022/06/29 01:05:56;;;;;;;1.58;0.82;;;;;;;19.72;60.57;98447.47;4136314;28;20876;-59
2022/06/29 01:07:58;;;;;;;0.85;0.82;;;;;;;19.74;60.60;98456.31;4132998;28;20211;-58
2022/06/29 01:10:00;;;;;;;0.85;0.73;;;;;;;19.73;60.79;98454.66;4134825;28;20251;-58
2022/06/29 01:12:02;;;;;;;0.68;0.68;;;;;;;19.72;60.98;98451.06;4136434;28;20652;-58
2022/06/29 01:14:04;;;;;;;1.00;0.60;;;;;;;19.73;60.91;98454.66;4149998;28;20289;-59
2022/06/29 01:16:06;;;;;;;1.27;0.68;;;;;;;19.68;60.83;98452.00;4132793;28;20551;-58
2022/06/29 01:18:07;;;;;;;3.80;0.93;;;;;;;19.66;61.07;98451.47;4133880;28;20642;-58
2022/06/29 01:20:10;;;;;;;2.30;0.70;;;;;;;19.66;61.13;98454.25;4136960;28;20241;-59
2022/06/29 01:22:13;;;;;;;1.30;0.90;;;;;;;19.65;61.18;98447.06;4133638;28;20216;-57
2022/06/29 01:24:15;;;;;;;3.38;1.00;;;;;;;19.66;61.16;98457.03;4132988;28;20205;-59
2022/06/29 01:26:17;;;;;;;1.25;0.70;;;;;;;19.64;61.26;98446.25;4140228;28;20209;-59
2022/06/29 01:28:18;;;;;;;6.70;1.15;;;;;;;19.63;61.35;98455.69;4152155;28;20312;-59
2022/06/29 01:30:20;;;;;;;1.60;0.93;;;;;;;19.63;61.16;98454.88;4136254;28;20209;-58
2022/06/29 01:32:22;;;;;;;2.00;1.00;;;;;;;19.63;61.24;98452.09;4132033;28;20283;-59
2022/06/29 01:34:24;;;;;;;1.63;0.65;;;;;;;19.64;61.26;98445.44;4138330;28;20308;-58
2022/06/29 01:36:26;;;;;;;1.70;0.85;;;;;;;19.67;62.11;98444.78;4137703;28;20546;-59
2022/06/29 01:38:28;;;;;;;1.10;0.82;;;;;;;19.67;62.01;98439.25;4133169;28;20340;-59
2022/06/29 01:40:30;;;;;;;1.48;0.80;;;;;;;19.68;62.74;98440.88;4134463;28;20332;-59
2022/06/29 01:42:32;;;;;;;1.23;0.75;;;;;;;19.68;62.18;98432.56;4149687;28;20303;-59
2022/06/29 01:44:34;;;;;;;1.48;0.80;;;;;;;19.68;62.37;98435.31;4138996;28;20296;-58
2022/06/29 01:46:36;;;;;;;0.73;0.73;;;;;;;19.69;62.70;98431.41;4137560;28;20993;-59
2022/06/29 01:48:38;;;;;;;1.13;0.80;;;;;;;19.68;63.14;98435.31;4136740;28;20268;-59
2022/06/29 01:50:39;;;;;;;1.10;1.00;;;;;;;19.66;63.57;98438.41;4132613;28;20249;-57
2022/06/29 01:52:41;;;;;;;1.88;1.10;;;;;;;19.62;63.33;98431.84;4132556;28;20216;-57
2022/06/29 01:54:43;;;;;;;1.50;0.73;;;;;;;19.61;63.21;98432.16;4133370;28;20497;-59
2022/06/29 01:56:44;;;;;;;1.25;1.00;;;;;;;19.60;63.07;98433.28;4134503;28;20300;-59
2022/06/29 01:58:47;;;;;;;1.67;1.00;;;;;;;19.57;63.49;98423.63;4135405;28;20316;-57
2022/06/29 02:00:49;;;;;;;1.67;1.58;;;;;;;19.57;63.40;98420.03;4131930;28;20201;-59
2022/06/29 02:02:51;;;;;;;1.20;0.95;;;;;;;19.55;63.34;98413.94;4134180;28;20238;-58
2022/06/29 02:04:52;;;;;;;0.80;0.80;;;;;;;19.50;63.06;98422.38;4131898;28;20601;-57
2022/06/29 02:06:54;;;;;;;1.02;1.02;;;;;;;19.56;63.33;98416.44;4132559;28;20205;-59
2022/06/29 02:08:56;;;;;;;2.45;0.90;;;;;;;19.58;63.21;98425.25;4134938;28;20312;-57
2022/06/29 02:10:58;;;;;;;1.73;0.80;;;;;;;19.57;62.72;98417.25;4132198;28;20775;-59
2022/06/29 02:13:00;;;;;;;0.70;0.70;;;;;;;19.49;62.53;98415.19;4134467;28;20237;-57
2022/06/29 02:15:02;;;;;;;2.88;0.80;;;;;;;19.49;62.77;98406.88;4133153;28;20260;-59
2022/06/29 02:17:03;;;;;;;1.38;1.00;;;;;;;19.48;62.76;98410.78;4134179;28;20339;-58
2022/06/29 02:19:05;;;;;;;1.00;0.73;;;;;;;19.47;62.87;98407.19;4137137;28;20702;-58
2022/06/29 02:21:07;;;;;;;2.47;0.90;;;;;;;19.48;62.80;98402.44;4139058;28;20255;-57
2022/06/29 02:23:08;;;;;;;1.20;1.10;;;;;;;19.45;62.72;98403.09;4123941;28;20222;-58
2022/06/29 02:25:10;;;;;;;1.52;0.70;;;;;;;19.46;62.51;98399.16;4131434;28;20213;-58
2022/06/29 02:27:12;;;;;;;1.17;0.80;;;;;;;19.45;62.77;98397.53;4138371;28;20292;-58
2022/06/29 02:29:13;;;;;;;1.55;0.77;;;;;;;19.45;62.71;98398.34;4137079;28;20248;-58
2022/06/29 02:35:56;;;;;;;2.28;0.90;;;;;;;19.43;62.79;98394.22;4137436;28;20240;-57
2022/06/29 02:37:57;;;;;;;0.80;0.70;;;;;;;19.43;62.70;98399.78;4119834;28;20210;-59
2022/06/29 02:39:59;;;;;;;1.52;0.70;;;;;;;19.46;62.84;98399.16;4136056;28;20213;-58
2022/06/29 02:42:01;;;;;;;1.10;0.85;;;;;;;19.46;62.85;98399.16;4136572;28;20690;-58
2022/06/29 02:44:03;;;;;;;5.30;1.30;;;;;;;19.45;62.93;98391.97;4139156;28;20480;-56
2022/06/29 02:46:04;;;;;;;1.40;0.80;;;;;;;19.44;62.92;98387.56;4140634;28;20292;-57
2022/06/29 02:48:06;;;;;;;3.85;0.85;;;;;;;19.43;63.08;98388.66;4136737;28;20227;-57
2022/06/29 02:50:08;;;;;;;1.27;0.82;;;;;;;19.37;61.71;98389.94;4121936;28;20671;-58
2022/06/29 02:52:10;;;;;;;0.75;0.75;;;;;;;19.34;62.02;98390.53;4122216;28;20278;-58
2022/06/29 02:54:11;;;;;;;1.45;0.82;;;;;;;19.22;62.36;98393.00;4132148;28;20198;-58
2022/06/29 02:56:13;;;;;;;1.98;1.10;;;;;;;19.16;62.39;98389.50;4134163;28;20333;-57
2022/06/29 02:58:14;;;;;;;1.25;0.82;;;;;;;19.13;63.08;98389.28;4134221;28;20312;-58
2022/06/29 03:00:16;;;;;;;1.42;1.17;;;;;;;19.20;62.68;98390.56;4131390;28;20206;-59
2022/06/29 03:02:18;;;;;;;0.93;0.70;;;;;;;19.12;63.12;98387.66;4134315;28;20631;-59
2022/06/29 03:04:19;;;;;;;2.42;1.00;;;;;;;19.12;63.02;98382.91;4135638;28;20316;-58
2022/06/29 03:06:21;;;;;;;1.05;0.80;;;;;;;19.17;62.99;98379.22;4121726;28;20210;-59
2022/06/29 03:08:23;;;;;;;1.50;0.90;;;;;;;19.05;63.51;98387.22;4125924;28;20235;-59
2022/06/29 03:10:24;;;;;;;1.70;0.60;;;;;;;19.07;63.65;98387.75;4134205;28;20475;-58
2022/06/29 03:12:27;;;;;;;1.67;0.80;;;;;;;18.97;63.77;98379.63;4134722;28;20329;-56
2022/06/29 03:14:29;;;;;;;2.60;1.10;;;;;;;19.00;63.65;98384.56;4147518;28;20227;-59
2022/06/29 03:16:30;;;;;;;1.60;0.75;;;;;;;18.97;64.01;98387.97;4134376;28;20299;-58
2022/06/29 03:18:32;;;;;;;0.93;0.80;;;;;;;19.00;63.78;98390.09;4126574;28;20309;-58
2022/06/29 03:20:34;;;;;;;1.33;0.77;;;;;;;18.99;63.85;98388.47;4129666;28;20360;-58
2022/06/29 03:22:36;;;;;;;0.63;0.60;;;;;;;18.96;64.17;98389.06;4132544;28;20677;-56
2022/06/29 03:24:39;;;;;;;3.85;0.98;;;;;;;18.97;63.84;98379.63;4117279;28;20253;-58
2022/06/29 03:26:40;;;;;;;1.13;0.95;;;;;;;19.00;63.69;98384.56;4130936;28;20296;-58
2022/06/29 03:28:42;;;;;;;1.65;1.00;;;;;;;19.01;64.06;98375.09;4118836;28;20273;-59
2022/06/29 03:30:43;;;;;;;1.10;1.00;;;;;;;19.01;64.27;98381.47;4132712;28;20304;-58
2022/06/29 03:32:45;;;;;;;1.38;0.90;;;;;;;19.03;64.21;98381.16;4129544;28;20206;-57
2022/06/29 03:34:47;;;;;;;1.08;0.82;;;;;;;19.01;64.35;98384.25;4133204;28;20307;-58
2022/06/29 03:36:48;;;;;;;2.78;1.05;;;;;;;19.02;64.32;98382.28;4131674;28;20212;-58
2022/06/29 03:38:50;;;;;;;1.85;1.23;;;;;;;19.03;64.07;98381.16;4130635;28;20324;-58
2022/06/29 03:40:51;;;;;;;2.08;1.00;;;;;;;19.02;63.99;98390.59;4135255;28;20763;-57
2022/06/29 03:42:54;;;;;;;0.93;0.70;;;;;;;19.05;64.42;98392.78;4117366;28;20596;-59
2022/06/29 03:44:55;;;;;;;1.40;1.10;;;;;;;19.04;64.40;98391.94;4131723;28;20217;-59
2022/06/29 03:46:58;;;;;;;0.98;0.85;;;;;;;19.06;64.66;98388.88;4133398;28;22259;-59
2022/06/29 03:49:00;;;;;;;1.85;0.85;;;;;;;19.06;64.30;98386.09;4132691;28;20689;-58
2022/06/29 03:51:01;;;;;;;0.90;0.88;;;;;;;19.10;64.61;98392.66;4147967;28;20622;-59
2022/06/29 03:53:03;;;;;;;2.65;1.10;;;;;;;19.08;64.86;98392.16;4132283;28;20264;-59
2022/06/29 03:55:06;;;;;;;0.90;0.90;;;;;;;19.06;64.87;98399.97;4135613;28;20236;-59
2022/06/29 03:57:07;;;;;;;1.45;0.80;;;;;;;19.04;65.11;98391.13;4124389;28;20206;-58
2022/06/29 03:59:09;;;;;;;1.42;1.02;;;;;;;19.03;65.60;98393.09;4145317;28;20328;-58
2022/06/29 04:01:11;;;;;;;1.67;0.80;;;;;;;19.02;65.61;98393.38;4131620;28;20679;-59
2022/06/29 04:03:12;;;;;;;3.40;1.15;;;;;;;19.03;65.57;98384.75;4130286;28;20300;-59
2022/06/29 04:05:14;;;;;;;2.90;1.02;;;;;;;19.03;65.87;98395.03;4132898;28;20201;-58
2022/06/29 04:07:16;;;;;;;1.42;0.93;;;;;;;19.06;65.72;98388.88;4128934;28;20860;-58
2022/06/29 04:09:17;;;;;;;1.08;0.98;;;;;;;19.07;65.78;98384.97;4133609;28;20249;-59
2022/06/29 04:13:39;;;;;;;1.73;0.98;;;;;;;19.00;66.35;98384.56;4133663;28;20201;-58
2022/06/29 04:15:41;;;;;;;1.08;0.93;;;;;;;19.01;66.04;98387.03;4132147;28;20293;-58
2022/06/29 04:17:43;;;;;;;0.95;0.80;;;;;;;19.04;65.85;98385.59;4121617;28;20293;-58
2022/06/29 04:19:45;;;;;;;1.80;0.88;;;;;;;19.05;65.94;98384.47;4124838;28;20239;-58
2022/06/29 04:21:47;;;;;;;1.65;0.82;;;;;;;19.06;65.77;98380.56;4139754;28;20293;-58
2022/06/29 04:23:49;;;;;;;1.17;0.98;;;;;;;19.09;65.40;98385.47;4131723;28;20283;-58
2022/06/29 04:25:50;;;;;;;1.27;0.90;;;;;;;19.11;65.53;98386.00;4139162;28;20300;-58
2022/06/29 04:27:52;;;;;;;0.77;0.77;;;;;;;19.15;65.46;98381.47;4140411;28;20288;-58
2022/06/29 04:29:54;;;;;;;1.30;1.05;;;;;;;19.20;65.40;98378.63;4138573;28;20202;-58
2022/06/29 04:31:55;;;;;;;1.33;1.23;;;;;;;19.21;65.83;98380.28;4140153;28;20204;-58
2022/06/29 04:33:57;;;;;;;3.22;1.20;;;;;;;19.21;66.31;98380.28;4124092;28;20926;-59
2022/06/29 04:35:59;;;;;;;4.13;1.08;;;;;;;19.20;66.40;98381.41;4139919;28;20297;-57
2022/06/29 04:38:00;;;;;;;1.58;1.02;;;;;;;19.24;66.61;98374.13;4142716;28;20243;-58
2022/06/29 04:40:03;;;;;;;2.25;0.85;;;;;;;19.11;66.83;98374.91;4141545;28;20321;-59
2022/06/29 04:42:05;;;;;;;1.58;1.17;;;;;;;19.08;66.79;98381.91;4142647;28;20604;-57
2022/06/29 04:44:06;;;;;;;7.90;1.10;;;;;;;19.07;66.49;98379.41;4137902;28;20703;-58
2022/06/29 04:46:20;;;;;;;17.50;1.73;;;;;;;19.02;66.49;98377.56;4139300;28;20442;-57
2022/06/29 04:48:22;;;;;;;14.85;1.90;;;;;;;19.05;66.33;98376.13;4136346;28;20773;-58
2022/06/29 04:50:24;;;;;;;5.55;1.52;;;;;;;19.11;66.10;98377.69;4139390;28;20686;-58
2022/06/29 04:52:25;;;;;;;13.68;1.30;;;;;;;19.13;66.71;98375.41;4124531;28;20198;-58
2022/06/29 04:54:27;;;;;;;2.38;1.20;;;;;;;19.14;66.67;98374.28;4138028;28;20197;-58
2022/06/29 04:56:33;;;;;;;4.55;1.00;;;;;;;19.14;67.20;98374.28;4136403;28;20205;-58
2022/06/29 04:58:34;;;;;;;9.70;1.10;;;;;;;19.12;66.06;98365.44;4137771;28;20311;-58
2022/06/29 05:00:36;;;;;;;5.28;1.23;;;;;;;19.13;66.34;98364.31;4136029;28;20297;-58
2022/06/29 05:02:38;;;;;;;6.80;1.65;;;;;;;19.08;66.84;98365.25;4132644;28;20558;-58
2022/06/29 05:04:39;;;;;;;6.00;1.30;;;;;;;19.19;66.63;98360.31;4150112;28;20336;-57
2022/06/29 05:06:41;;;;;;;1.50;1.40;;;;;;;19.12;67.08;98359.91;4134699;28;20210;-58
2022/06/29 05:08:43;;;;;;;5.72;1.00;;;;;;;19.14;66.84;98357.63;4134168;28;20729;-58
2022/06/29 05:10:45;;;;;;;6.65;1.42;;;;;;;19.11;66.83;98358.25;4120850;28;20206;-58
2022/06/29 05:12:46;;;;;;;4.53;1.10;;;;;;;19.16;67.05;98372.00;4121923;28;20580;-58
2022/06/29 05:14:48;;;;;;;3.65;1.15;;;;;;;18.97;66.86;98372.13;4136349;28;20317;-58
2022/06/29 05:16:49;;;;;;;1.45;1.15;;;;;;;18.97;67.02;98374.09;4138259;28;21709;-56
2022/06/29 05:18:53;;;;;;;3.03;1.25;;;;;;;19.00;67.52;98365.97;4137972;28;20273;-58
2022/06/29 05:20:55;;;;;;;5.63;1.67;;;;;;;19.04;67.01;98368.94;4138670;28;20757;-57
2022/06/29 05:22:57;;;;;;;4.32;1.33;;;;;;;19.09;66.94;98360.50;4144465;28;20244;-58
2022/06/29 05:24:58;;;;;;;3.38;1.10;;;;;;;19.15;66.83;98370.38;4140753;28;20637;-58
2022/06/29 05:27:00;;;;;;;0.98;0.93;;;;;;;19.17;66.73;98368.13;4152398;28;20660;-58
2022/06/29 05:29:02;;;;;;;3.05;1.83;;;;;;;19.20;67.40;98361.97;4137253;28;20572;-57
2022/06/29 05:31:04;;;;;;;3.05;1.05;;;;;;;19.13;66.70;98361.53;4126821;28;20282;-56
2022/06/29 05:33:06;;;;;;;1.60;1.30;;;;;;;19.21;66.08;98363.63;4124895;28;20205;-58
2022/06/29 05:35:08;;;;;;;9.52;1.15;;;;;;;19.28;65.62;98367.63;4139849;28;20209;-58
2022/06/29 05:37:16;;;;;;;1.98;1.08;;;;;;;19.40;65.49;98372.66;4127926;28;20194;-58
2022/06/29 05:39:18;;;;;;;2.83;0.98;;;;;;;19.54;65.73;98374.28;4143582;28;20234;-58
2022/06/29 05:41:19;;;;;;;1.77;1.05;;;;;;;19.58;63.51;98374.47;4139497;28;20658;-59
2022/06/29 05:43:21;;;;;;;1.42;0.85;;;;;;;19.58;61.46;98361.41;4135429;28;21324;-58
2022/06/29 05:45:24;;;;;;;1.65;1.02;;;;;;;19.68;62.28;98357.56;4139007;28;20336;-58
2022/06/29 05:47:26;;;;;;;3.17;0.80;;;;;;;19.90;62.12;98365.97;4136319;28;20718;-57
2022/06/29 05:49:28;;;;;;;3.55;1.00;;;;;;;20.07;62.32;98364.19;4154217;28;20238;-58
2022/06/29 05:51:30;;;;;;;8.65;1.00;;;;;;;20.18;61.21;98356.41;4141436;28;20201;-57
2022/06/29 05:53:32;;;;;;;2.85;1.08;;;;;;;20.12;61.42;98361.25;4143806;28;20237;-58
2022/06/29 05:55:34;;;;;;;1.67;0.85;;;;;;;20.20;61.74;98351.34;4143987;28;20631;-59
2022/06/29 05:57:35;;;;;;;5.35;0.82;;;;;;;20.15;61.63;98360.66;4142353;28;20644;-58
2022/06/29 05:59:37;;;;;;;1.17;0.70;;;;;;;20.09;60.74;98355.50;4139601;28;20312;-57
2022/06/29 06:01:39;;;;;;;0.80;0.80;;;;;;;19.98;61.44;98370.78;4154292;28;20209;-59
2022/06/29 06:03:41;;;;;;;1.92;0.85;;;;;;;20.09;61.05;98369.41;4155618;28;20287;-56
2022/06/29 06:05:43;;;;;;;1.23;0.90;;;;;;;20.25;60.57;98362.34;4126314;28;20216;-58
2022/06/29 06:07:45;;;;;;;1.55;1.02;;;;;;;20.44;60.11;98365.75;4137873;28;20205;-56
2022/06/29 06:09:47;;;;;;;2.30;0.88;;;;;;;20.71;60.34;98371.16;4135461;28;20270;-56
2022/06/29 06:11:49;;;;;;;2.95;1.20;;;;;;;21.02;60.06;98372.81;4138814;28;20209;-58
2022/06/29 06:13:51;;;;;;;3.10;1.27;;;;;;;21.23;59.48;98367.50;4136938;28;20209;-56
2022/06/29 06:15:56;;;;;;;2.25;1.10;;;;;;;21.37;59.59;98369.00;4139474;28;20253;-55
2022/06/29 06:18:48;;;;;;;1.63;0.85;;;;;;;21.63;58.74;98374.66;4137176;28;20228;-57
2022/06/29 06:21:01;;;;;;;2.90;1.00;;;;;;;21.74;56.84;98364.84;4137252;28;20205;-57
2022/06/29 06:23:08;;;;;;;2.17;1.15;;;;;;;21.72;55.92;98372.72;4136074;28;20212;-57
2022/06/29 06:25:16;;;;;;;7.93;0.77;;;;;;;21.52;54.92;98367.72;4136963;28;20228;-57
2022/06/29 06:27:27;;;;;;;1.10;1.00;;;;;;;21.71;55.16;98371.09;4123657;28;20221;-57
2022/06/29 06:29:39;;;;;;;2.20;0.90;;;;;;;21.83;55.59;98366.50;4112616;28;20606;-57
2022/06/29 06:31:54;;;;;;;8.90;1.08;;;;;;;21.51;53.71;98363.31;4118163;28;21288;-59
2022/06/29 06:33:56;;;;;;;2.75;0.93;;;;;;;21.57;54.66;98373.97;4141544;28;20675;-57
2022/06/29 06:35:57;;;;;;;1.60;1.02;;;;;;;21.72;54.35;98369.94;4140584;28;20740;-58
2022/06/29 06:38:01;;;;;;;1.50;0.90;;;;;;;21.79;54.30;98375.84;4142582;28;20792;-57
2022/06/29 06:42:24;;;;;;;1.45;1.15;;;;;;;22.12;53.80;98374.22;4136258;28;20205;-57
2022/06/29 06:44:25;;;;;;;1.67;1.00;;;;;;;22.09;52.65;98380.44;4135039;28;20221;-59
2022/06/29 06:46:34;;;;;;;1.25;0.90;;;;;;;22.07;52.55;98378.00;4151397;28;20206;-57
2022/06/29 06:48:36;;;;;;;3.92;1.55;;;;;;;22.37;54.42;98382.56;4138470;28;20251;-56
2022/06/29 06:50:38;;;;;;;2.03;1.27;;;;;;;22.59;54.13;98384.38;4150272;28;20208;-58
2022/06/29 06:52:45;;;;;;;2.95;0.90;;;;;;;22.60;53.79;98380.44;4136602;28;20199;-57
2022/06/29 06:54:47;;;;;;;1.83;1.02;;;;;;;22.50;53.72;98380.78;4154204;28;20318;-58
2022/06/29 06:56:48;;;;;;;1.55;0.70;;;;;;;22.65;54.62;98385.84;4138127;28;20208;-56
2022/06/29 06:58:50;;;;;;;3.10;0.80;;;;;;;22.65;54.69;98386.66;4137012;28;20239;-58
2022/06/29 07:00:55;;;;;;;0.88;0.80;;;;;;;22.81;54.02;98381.38;4150069;28;20232;-58
2022/06/29 07:02:57;;;;;;;1.75;0.93;;;;;;;23.12;53.57;98376.34;4136731;28;20201;-58
2022/06/29 07:04:59;;;;;;;2.05;0.80;;;;;;;23.05;52.77;98379.63;4136655;28;20229;-57
2022/06/29 07:07:01;;;;;;;1.60;0.90;;;;;;;23.07;53.36;98380.16;4139356;28;20722;-57
2022/06/29 07:09:07;;;;;;;0.85;0.77;;;;;;;23.34;53.03;98373.31;4141368;28;20220;-58
2022/06/29 07:11:09;;;;;;;2.00;0.75;;;;;;;23.48;52.04;98374.72;4138157;28;20721;-58
2022/06/29 07:13:10;;;;;;;4.18;1.05;;;;;;;23.42;48.80;98380.81;4137523;28;20263;-59
2022/06/29 07:15:12;;;;;;;1.58;0.80;;;;;;;23.77;50.47;98377.50;4120640;28;20213;-57
2022/06/29 07:17:14;;;;;;;12.38;1.30;;;;;;;23.94;50.14;98381.03;4136343;28;20212;-58
2022/06/29 07:19:16;;;;;;;1.48;0.80;;;;;;;24.01;50.71;98378.50;4137324;28;20657;-58
2022/06/29 07:21:18;;;;;;;1.30;0.70;;;;;;;23.92;48.70;98378.91;4124178;28;20308;-59
2022/06/29 07:23:20;;;;;;;1.23;0.82;;;;;;;23.90;48.70;98375.66;4152259;28;20243;-58
2022/06/29 07:25:22;;;;;;;1.85;1.02;;;;;;;23.89;49.85;98379.59;4122588;28;20868;-57
2022/06/29 07:27:24;;;;;;;1.20;0.90;;;;;;;23.78;50.52;98374.38;4151803;28;20812;-58
2022/06/29 07:29:26;;;;;;;1.73;1.08;;;;;;;23.59;50.61;98370.41;4138256;28;20268;-59
2022/06/29 07:31:27;;;;;;;1.67;0.95;;;;;;;23.49;50.72;98370.78;4135506;28;20209;-57
2022/06/29 07:33:29;;;;;;;2.05;1.00;;;;;;;23.32;50.44;98370.03;4133791;28;20215;-58
2022/06/29 07:35:31;;;;;;;1.38;0.90;;;;;;;23.29;50.81;98371.53;4137252;28;20702;-56
2022/06/29 07:37:33;;;;;;;4.13;0.90;;;;;;;23.49;49.98;98367.13;4134227;28;20212;-56
2022/06/29 07:39:34;;;;;;;1.85;1.08;;;;;;;23.56;50.38;98375.84;4135111;28;20746;-58
2022/06/29 07:41:47;;;;;;;2.28;0.73;;;;;;;23.54;50.85;98364.16;4136410;28;20261;-59
2022/06/29 07:43:48;;;;;;;1.98;1.30;;;;;;;23.65;51.28;98368.22;4153084;28;20232;-57
2022/06/29 07:45:50;;;;;;;1.88;0.88;;;;;;;23.81;51.21;98367.28;4124893;28;20213;-59
2022/06/29 07:47:52;;;;;;;1.63;0.73;;;;;;;24.06;49.15;98366.31;4135035;28;20209;-59
2022/06/29 07:49:54;;;;;;;2.50;1.17;;;;;;;24.27;49.93;98365.13;4135380;28;20209;-58
2022/06/29 07:51:56;;;;;;;1.67;0.90;;;;;;;24.39;49.75;98358.78;4135049;28;20208;-58
2022/06/29 07:53:58;;;;;;;1.65;1.00;;;;;;;24.50;48.67;98363.59;4136457;28;20265;-59
2022/06/29 07:56:00;;;;;;;2.00;1.20;;;;;;;24.59;48.56;98369.16;4132248;28;20589;-58
2022/06/29 07:58:02;;;;;;;3.70;0.90;;;;;;;24.83;49.17;98369.22;4136592;28;20208;-58
2022/06/29 08:00:05;;;;;;;1.00;0.80;;;;;;;25.00;49.09;98361.44;4133353;28;20200;-58
2022/06/29 08:02:07;;;;;;;1.83;0.90;;;;;;;24.95;49.06;98364.47;4134043;28;20263;-59
2022/06/29 08:04:09;;;;;;;1.20;1.02;;;;;;;24.80;49.29;98373.50;4132951;28;20216;-59
2022/06/29 08:06:10;;;;;;;1.23;0.93;;;;;;;24.64;49.13;98363.31;4132779;28;20311;-59
2022/06/29 08:08:12;;;;;;;2.15;1.00;;;;;;;24.70;49.66;98351.56;4129380;28;20233;-58
2022/06/29 08:10:14;;;;;;;1.50;0.90;;;;;;;24.88;50.22;98357.78;4135950;28;20233;-58
2022/06/29 08:12:16;;;;;;;4.28;1.00;;;;;;;24.48;47.12;98351.94;4133834;28;20295;-58
2022/06/29 08:14:18;;;;;;;2.53;0.90;;;;;;;24.54;47.82;98366.53;4135649;28;20212;-57
2022/06/29 08:16:20;;;;;;;5.90;1.10;;;;;;;25.06;49.92;98360.03;4137569;28;20232;-58
2022/06/29 08:18:21;;;;;;;1.20;1.10;;;;;;;25.18;48.61;98351.66;4133630;28;20267;-58
2022/06/29 08:20:23;;;;;;;1.95;0.93;;;;;;;25.56;47.23;98363.38;4153675;28;20298;-58
2022/06/29 08:22:25;;;;;;;1.42;0.98;;;;;;;25.33;47.11;98353.78;4137632;28;20296;-58
2022/06/29 08:24:27;;;;;;;2.03;1.00;;;;;;;25.07;45.92;98350.47;4134430;28;20252;-57
2022/06/29 08:26:29;;;;;;;1.73;1.15;;;;;;;24.94;47.60;98365.63;4137060;28;20232;-58
2022/06/29 08:28:51;;;;;;;1.45;1.00;;;;;;;24.56;46.41;98362.25;4137340;28;20245;-58
2022/06/29 08:30:54;;;;;;;2.47;0.93;;;;;;;24.73;47.05;98361.28;4138435;28;20272;-58
2022/06/29 08:32:55;;;;;;;1.95;1.02;;;;;;;24.86;46.92;98366.53;4120604;28;20201;-57
2022/06/29 08:34:59;;;;;;;3.03;1.10;;;;;;;24.75;46.95;98358.94;4134522;28;20232;-58
2022/06/29 08:37:06;;;;;;;3.45;1.30;;;;;;;24.68;46.81;98359.50;4135229;28;20215;-58
2022/06/29 08:39:08;;;;;;;5.40;0.90;;;;;;;24.59;46.95;98366.34;4136551;28;20308;-58
2022/06/29 08:41:10;;;;;;;4.72;1.65;;;;;;;24.67;47.83;98374.66;4136457;28;20197;-59
2022/06/29 08:43:13;;;;;;;4.72;1.05;;;;;;;24.65;46.94;98370.59;4133945;28;20496;-58
2022/06/29 08:45:15;;;;;;;1.58;0.98;;;;;;;24.73;48.49;98362.06;4142728;28;20580;-58
2022/06/29 08:47:17;;;;;;;4.18;0.93;;;;;;;24.88;49.50;98367.03;4134742;28;20623;-58
2022/06/29 08:49:18;;;;;;;1.02;0.93;;;;;;;24.65;48.10;98360.19;4135719;28;20379;-58
2022/06/29 08:51:22;;;;;;;3.15;1.25;;;;;;;24.66;47.81;98367.41;4136253;28;20208;-59
2022/06/29 08:53:23;;;;;;;2.28;1.08;;;;;;;24.38;49.19;98360.75;4137453;28;20224;-58
2022/06/29 08:55:26;;;;;;;1.15;1.08;;;;;;;24.07;49.21;98363.16;4127446;28;20236;-58
2022/06/29 08:57:28;;;;;;;2.00;1.05;;;;;;;24.45;50.07;98365.81;4141284;28;20311;-61
2022/06/29 08:59:30;;;;;;;2.08;1.17;;;;;;;24.51;49.30;98370.84;4140167;28;20221;-58
2022/06/29 09:01:52;;;;;;;2.20;1.02;;;;;;;24.51;48.39;98365.22;4137869;28;20208;-58
2022/06/29 09:03:54;;;;;;;3.40;1.27;;;;;;;24.68;48.80;98367.06;4120183;28;20211;-58
2022/06/29 09:05:56;;;;;;;5.15;0.90;;;;;;;24.87;49.50;98362.56;4140254;28;20221;-57
2022/06/29 09:07:58;;;;;;;1.63;1.17;;;;;;;25.02;49.96;98356.31;4137105;28;20300;-57
2022/06/29 09:10:07;;;;;;;1.17;1.02;;;;;;;25.04;49.71;98365.19;4138483;28;20209;-57
2022/06/29 09:12:17;;;;;;;9.10;1.70;;;;;;;25.21;48.82;98364.97;4136732;28;20207;-58
2022/06/29 09:14:27;;;;;;;1.90;1.15;;;;;;;25.21;49.71;98362.19;4138279;28;20241;-57
2022/06/29 09:16:28;;;;;;;3.30;1.55;;;;;;;25.26;49.88;98370.38;4154501;28;20292;-58
2022/06/29 09:18:31;;;;;;;1.45;1.15;;;;;;;25.03;48.85;98365.53;4138843;28;20221;-57
2022/06/29 09:20:40;;;;;;;1.45;1.35;;;;;;;25.08;49.82;98363.34;4123365;28;20296;-58
2022/06/29 09:22:55;;;;;;;2.97;1.20;;;;;;;25.18;49.74;98360.06;4139381;28;20702;-59
2022/06/29 09:24:57;;;;;;;2.88;1.50;;;;;;;25.28;47.36;98359.66;4137028;28;20245;-59
2022/06/29 09:27:16;;;;;;;4.30;1.60;;;;;;;24.89;48.64;98365.84;4139342;28;20610;-58
2022/06/29 09:29:24;;;;;;;2.67;1.23;;;;;;;24.96;49.09;98371.72;4138900;28;20225;-58
2022/06/29 09:31:25;;;;;;;1.88;1.10;;;;;;;24.98;48.54;98363.78;4143552;28;20236;-58
2022/06/29 09:33:29;;;;;;;1.17;1.10;;;;;;;25.01;49.80;98373.47;4135648;28;20312;-57
2022/06/29 09:35:31;;;;;;;1.45;0.90;;;;;;;25.11;50.33;98373.00;4136347;28;20645;-59
2022/06/29 09:37:33;;;;;;;1.35;1.25;;;;;;;25.30;49.76;98368.50;4142022;28;20219;-59
2022/06/29 09:39:36;;;;;;;1.60;1.08;;;;;;;25.62;49.75;98369.56;4138313;28;20869;-59
2022/06/29 09:41:38;;;;;;;2.25;1.20;;;;;;;25.45;48.17;98365.00;4134686;28;20300;-59
2022/06/29 09:43:46;;;;;;;2.10;1.10;;;;;;;25.41;49.59;98361.28;4136915;28;20216;-59
2022/06/29 09:45:48;;;;;;;2.45;1.50;;;;;;;25.53;48.22;98369.69;4143378;28;20216;-58
2022/06/29 09:47:50;;;;;;;3.15;1.27;;;;;;;25.24;48.47;98363.47;4138794;28;20201;-59